KABY/ABY METAR and TAF weather

Enter ICAO airport designator
Station Type Date Time Source
KABY METAR 2020/09/20 05:53 UTC NOAA

KABY 200553Z AUTO 05010KT 10SM -RA FEW090 BKN120 19/14 A3015 RMK AO2 RAB41 SLP208 P0000 60000 T01890144 10217 20189 58003


Station Type Date Time Source
KABY Decoded METAR 2020/09/20 05:53 UTC NOAA

ALBANY SOUTHWEST GEORGIA, GA, United States (KABY) 31-32N 084-12W 58M
Sep 20, 2020 - 01:53 AM EDT / 2020.09.20 0553 UTC
Wind: from the NE (050 degrees) at 12 MPH (10 KT):0
Visibility: 10 mile(s):0
Sky conditions: mostly cloudy
Weather: light rain
Precipitation last hour: A trace
Temperature: 66.0 F (18.9 C)
Dew Point: 57.9 F (14.4 C)
Relative Humidity: 75%
Pressure (altimeter): 30.15 in. Hg (1020 hPa)
Pressure tendency: 0.01 inches (0.3 hPa) lower than three hours ago
ob: KABY 200553Z AUTO 05010KT 10SM -RA FEW090 BKN120 19/14 A3015 RMK AO2 RAB41 SLP208 P0000 60000 T01890144 10217 20189 58003
cycle: 6

Station Type Date Time Source
KABY TAF 2020/09/20 06:22 UTC NOAA

TAF KABY 200520Z 2006/2106 05011KT P6SM BKN060
FM201500 06012G18KT P6SM OVC050
FM210000 06008KT P6SM BKN050

Example: see airport list